Startpagina
METAR-TAF:

METAR-TAF

Vliegvelden :

Luchthaven Košice

Košice, Slowakije

breedte: 48-39-47N, lengte: 021-14-28E, hoogte: 232 m

Actueel weer

Dit bericht is 37 minuten geleden gemaakt, om 23:00 UTC
Wind 3 kt uit het noorden, variërend tussen het noordnoordwesten en het noordnoordoosten
Temperatuur 19°C
Vochtigheid 78%
Druk 1020 hPa
Zicht 10 km of meer
geen wolken onder 1500 m en geen cumulonimbus

METAR: LZKZ 182300Z 36003KT 330V030 CAVOK 19/15 Q1020

Tijdstip: 01:37 (23:37 UTC)

Verwachting

Dit bericht is 6 uur en het 37 minuten geleden gemaakt, om 17:00 UTC
Verwachting geldig van 18 om 18 UTC tot 19 om 18 UTC
Wind 8 kt uit het noorden
Zicht 10 km of meer
geen wolken onder 1500 m en geen cumulonimbus
Tijdelijke
van 19 om 11 UTC tot 19 om 15 UTC
Wind 16 kt uit het noordnoordoosten
Zicht 10 km of meer
Weinig wolken op 5000 ft, Cumulonimbus.

TAF: LZKZ 181700Z 1818/1918 01008KT CAVOK TEMPO 1911/1915 03016KT 9999 FEW050CB

Waarnemingen en weersverwachtingen van meer dan 4000 vliegvelden (METAR en TAF).

De beschikbare stations zijn de gele en rode punten op de kaart.

Ga met uw muis naar het station om de naam te zien.

Klik dan om waarnemingen en weersverwachtingen te zien.

kaart wijzigen: klik op de groene knoppen met een zwart kruis om in te zoomen, op de groene knop met een streepje om uit te zoomen of op de groene pijlen voor aangrenzende kaarten.


METAR-TAF: